Time;durP1;ratioP1;P1;durP2;ratioP2;P2;SDS_P1;SDS_P2;PMS_P1;PMS_P2;Temp;Humidity;BMP_temperature;BMP_pressure;BME280_temperature;BME280_humidity;BME280_pressure;Samples;Min_cycle;Max_cycle;Signal;HPM_P1;HPM_P2
2024/02/20 00:02:20;;;;;;;33.70;17.67;;;5.10;99.90;;;;;;4405524;28;660224;-78
2024/02/20 00:05:09;;;;;;;40.33;17.43;;;5.10;99.90;;;;;;4407508;28;661090;-78
2024/02/20 00:08:02;;;;;;;33.00;15.37;;;5.00;99.90;;;;;;4424809;28;659590;-77
2024/02/20 00:10:50;;;;;;;35.40;17.87;;;5.00;99.90;;;;;;4408186;28;659965;-78
2024/02/20 00:13:37;;;;;;;33.50;17.85;;;5.00;99.90;;;;;;4415197;28;659742;-76
2024/02/20 00:16:26;;;;;;;31.47;15.37;;;5.10;99.90;;;;;;4439333;28;659712;-77
2024/02/20 00:19:13;;;;;;;33.90;17.67;;;5.10;99.90;;;;;;4413039;28;659424;-78
2024/02/20 00:22:01;;;;;;;29.75;15.30;;;5.00;99.90;;;;;;4435303;28;660507;-78
2024/02/20 00:24:48;;;;;;;36.80;18.57;;;5.00;99.10;;;;;;4402677;28;659892;-78
2024/02/20 00:27:36;;;;;;;33.70;15.00;;;5.00;99.90;;;;;;4434519;28;659741;-78
2024/02/20 00:30:24;;;;;;;40.63;20.27;;;4.90;99.90;;;;;;4393605;28;660030;-78
2024/02/20 00:33:13;;;;;;;31.70;16.27;;;4.90;99.90;;;;;;4435371;28;660042;-78
2024/02/20 00:36:00;;;;;;;37.40;17.63;;;4.90;99.90;;;;;;4410402;28;660051;-78
2024/02/20 00:38:47;;;;;;;27.10;12.13;;;5.00;99.90;;;;;;4423178;28;659674;-77
2024/02/20 00:41:35;;;;;;;38.43;18.67;;;5.00;99.90;;;;;;4437267;28;660295;-79
2024/02/20 00:44:22;;;;;;;38.33;17.70;;;4.90;99.90;;;;;;4431884;28;660594;-77
2024/02/20 00:47:10;;;;;;;36.90;18.30;;;4.90;99.90;;;;;;4427529;28;660529;-79
2024/02/20 00:49:59;;;;;;;32.23;16.63;;;4.90;99.90;;;;;;4432807;28;659789;-76
2024/02/20 00:52:46;;;;;;;22.73;10.47;;;4.90;99.90;;;;;;4423819;28;659197;-78
2024/02/20 00:55:33;;;;;;;25.07;13.23;;;4.90;99.90;;;;;;4418426;28;660241;-78
2024/02/20 00:58:21;;;;;;;29.20;15.30;;;4.80;99.90;;;;;;4434321;28;660518;-78
2024/02/20 01:01:10;;;;;;;36.17;19.13;;;4.80;99.90;;;;;;4403765;28;659827;-78
2024/02/20 01:03:57;;;;;;;33.87;16.30;;;4.80;99.90;;;;;;4435110;28;660032;-75
2024/02/20 01:06:46;;;;;;;32.77;16.13;;;4.70;99.90;;;;;;4437455;28;661045;-79
2024/02/20 01:09:33;;;;;;;37.50;16.67;;;4.70;99.90;;;;;;4397149;28;659819;-78
2024/02/20 01:12:21;;;;;;;29.73;15.70;;;4.70;99.90;;;;;;4436931;28;659378;-79
2024/02/20 01:15:09;;;;;;;30.03;15.47;;;4.70;99.90;;;;;;4413301;28;659309;-78
2024/02/20 01:17:57;;;;;;;27.93;13.77;;;4.60;99.90;;;;;;4434551;28;659560;-79
2024/02/20 01:20:44;;;;;;;33.87;14.93;;;4.70;99.90;;;;;;4412107;28;659539;-78
2024/02/20 01:23:32;;;;;;;32.17;15.07;;;4.60;99.90;;;;;;4437040;28;659499;-78
2024/02/20 01:26:20;;;;;;;34.20;15.40;;;4.60;99.90;;;;;;4389057;28;660622;-79
2024/02/20 01:29:08;;;;;;;32.73;15.30;;;4.70;99.90;;;;;;4429046;28;659506;-76
2024/02/20 01:31:56;;;;;;;31.85;15.95;;;4.70;99.90;;;;;;4419095;28;660903;-78
2024/02/20 01:34:43;;;;;;;32.60;15.43;;;4.70;99.90;;;;;;4414496;28;659991;-76
2024/02/20 01:37:30;;;;;;;31.13;14.40;;;4.70;99.90;;;;;;4432804;28;660367;-78
2024/02/20 01:40:19;;;;;;;30.33;14.20;;;4.60;99.90;;;;;;4414364;28;660061;-77
2024/02/20 01:43:06;;;;;;;32.70;13.90;;;4.60;99.90;;;;;;4426167;28;659586;-79
2024/02/20 01:45:54;;;;;;;35.42;16.70;;;4.70;99.90;;;;;;4408286;28;660155;-79
2024/02/20 01:48:41;;;;;;;33.40;15.50;;;4.60;99.90;;;;;;4430637;28;660399;-78
2024/02/20 01:51:29;;;;;;;34.30;16.40;;;4.70;99.90;;;;;;4411770;28;660682;-79
2024/02/20 01:54:16;;;;;;;32.93;14.37;;;4.60;99.90;;;;;;4439662;28;660078;-79
2024/02/20 01:57:06;;;;;;;27.90;13.90;;;4.60;99.90;;;;;;4402383;28;660339;-79
2024/02/20 01:59:54;;;;;;;27.60;14.00;;;4.60;99.90;;;;;;4418919;28;659985;-79
2024/02/20 02:02:42;;;;;;;20.57;10.00;;;4.60;99.90;;;;;;4433328;28;659589;-78
2024/02/20 02:05:29;;;;;;;13.93;4.87;;;4.60;99.90;;;;;;4412180;28;660294;-78
2024/02/20 02:08:17;;;;;;;22.87;9.80;;;4.70;99.90;;;;;;4441834;28;658641;-79
2024/02/20 02:11:04;;;;;;;20.30;8.77;;;4.60;99.90;;;;;;4406690;28;659826;-78
2024/02/20 02:13:53;;;;;;;25.67;11.70;;;4.60;99.90;;;;;;4436504;28;658421;-78
2024/02/20 02:16:40;;;;;;;23.17;10.77;;;4.60;99.90;;;;;;4413071;28;659978;-79
2024/02/20 02:19:27;;;;;;;19.90;8.20;;;4.60;99.90;;;;;;4416486;28;659893;-77
2024/02/20 02:22:15;;;;;;;24.20;10.00;;;4.60;99.90;;;;;;4425302;28;659830;-78
2024/02/20 02:25:03;;;;;;;22.03;9.93;;;4.50;99.90;;;;;;4427247;28;659512;-78
2024/02/20 02:27:51;;;;;;;20.63;10.23;;;4.60;99.90;;;;;;4415175;28;658523;-78
2024/02/20 02:30:39;;;;;;;21.00;10.60;;;4.60;99.90;;;;;;4405115;28;660096;-79
2024/02/20 02:33:26;;;;;;;24.13;10.20;;;4.50;99.90;;;;;;4433582;28;659115;-79
2024/02/20 02:36:14;;;;;;;19.90;10.20;;;4.50;99.90;;;;;;4402895;28;659542;-78
2024/02/20 02:39:01;;;;;;;23.87;11.77;;;4.70;99.90;;;;;;4430849;28;660004;-78
2024/02/20 02:41:49;;;;;;;22.23;11.18;;;4.60;99.90;;;;;;4403310;28;659892;-78
2024/02/20 02:44:38;;;;;;;21.90;9.93;;;4.60;99.90;;;;;;4425111;28;659598;-77
2024/02/20 02:47:25;;;;;;;19.10;9.73;;;4.60;99.90;;;;;;4413285;28;660610;-77
2024/02/20 02:50:13;;;;;;;18.33;9.37;;;4.60;99.90;;;;;;4413724;28;658270;-76
2024/02/20 02:53:00;;;;;;;12.10;4.00;;;4.60;99.90;;;;;;4431772;28;659711;-75
2024/02/20 02:55:47;;;;;;;15.60;8.27;;;4.70;99.90;;;;;;4426031;28;659088;-75
2024/02/20 02:58:35;;;;;;;16.50;7.63;;;4.70;99.90;;;;;;4421843;28;660742;-77
2024/02/20 03:01:23;;;;;;;19.13;8.07;;;4.70;99.90;;;;;;4436925;28;659040;-77
2024/02/20 03:04:11;;;;;;;17.70;9.00;;;4.70;99.90;;;;;;4410813;28;659995;-76
2024/02/20 03:06:58;;;;;;;13.83;5.70;;;4.60;99.90;;;;;;4407861;28;658941;-76
2024/02/20 03:09:45;;;;;;;17.50;9.07;;;4.60;99.90;;;;;;4433609;28;659129;-78
2024/02/20 03:12:32;;;;;;;16.40;7.93;;;4.70;99.90;;;;;;4416332;28;659476;-75
2024/02/20 03:15:20;;;;;;;14.63;8.43;;;4.70;99.90;;;;;;4422268;28;658874;-77
2024/02/20 03:18:08;;;;;;;16.73;8.73;;;4.60;99.90;;;;;;4438821;28;658912;-77
2024/02/20 03:20:56;;;;;;;18.20;8.83;;;4.60;99.90;;;;;;4412295;28;658884;-77
2024/02/20 03:23:43;;;;;;;17.77;9.20;;;4.70;99.90;;;;;;4399750;28;658475;-76
2024/02/20 03:26:30;;;;;;;14.77;7.90;;;4.70;99.90;;;;;;4418859;28;658981;-76
2024/02/20 03:29:17;;;;;;;16.20;7.43;;;4.70;99.90;;;;;;4413068;28;658770;-75
2024/02/20 03:32:05;;;;;;;18.87;9.60;;;4.70;99.90;;;;;;4430388;28;659100;-75
2024/02/20 03:34:54;;;;;;;10.07;4.93;;;4.70;99.90;;;;;;4410877;28;658400;-77
2024/02/20 03:37:41;;;;;;;20.90;10.07;;;4.80;99.90;;;;;;4434017;28;658740;-77
2024/02/20 03:40:28;;;;;;;14.73;6.07;;;4.70;99.90;;;;;;4396683;28;659712;-78
2024/02/20 03:43:16;;;;;;;9.83;5.57;;;4.80;99.90;;;;;;4424466;28;659641;-77
2024/02/20 03:46:03;;;;;;;21.70;12.20;;;4.70;99.90;;;;;;4415425;28;657414;-78
2024/02/20 03:48:51;;;;;;;23.33;11.00;;;4.70;99.90;;;;;;4426481;28;661073;-78
2024/02/20 03:51:39;;;;;;;21.70;12.40;;;4.70;99.90;;;;;;4413548;28;659661;-78
2024/02/20 03:54:26;;;;;;;26.13;12.97;;;4.70;99.90;;;;;;4423171;28;660304;-78
2024/02/20 03:57:14;;;;;;;29.63;13.83;;;4.80;99.90;;;;;;4406917;28;659730;-78
2024/02/20 04:00:01;;;;;;;23.03;10.20;;;4.80;99.90;;;;;;4430944;28;660051;-78
2024/02/20 04:02:48;;;;;;;14.07;6.57;;;4.80;99.90;;;;;;4416470;28;660052;-77
2024/02/20 04:05:37;;;;;;;30.70;15.40;;;4.80;99.90;;;;;;4432171;28;659220;-77
2024/02/20 04:08:25;;;;;;;31.27;16.47;;;4.70;99.90;;;;;;4407488;28;659781;-76
2024/02/20 04:11:12;;;;;;;24.10;10.15;;;4.70;99.90;;;;;;4408961;28;659311;-75
2024/02/20 04:14:00;;;;;;;30.47;15.13;;;4.70;99.90;;;;;;4425412;28;660647;-77
2024/02/20 04:16:47;;;;;;;30.33;14.87;;;4.70;99.90;;;;;;4421003;28;660124;-75
2024/02/20 04:19:35;;;;;;;23.13;8.97;;;4.70;99.90;;;;;;4433635;28;660026;-78
2024/02/20 04:22:22;;;;;;;29.83;13.37;;;4.80;99.90;;;;;;4426389;28;658826;-76
2024/02/20 04:25:11;;;;;;;32.43;15.20;;;4.70;99.90;;;;;;4427142;28;660786;-77
2024/02/20 04:27:59;;;;;;;33.07;17.70;;;4.70;99.90;;;;;;4403968;28;659619;-77
2024/02/20 04:30:47;;;;;;;33.80;14.32;;;4.70;99.90;;;;;;4431373;28;659862;-77
2024/02/20 04:33:34;;;;;;;46.57;20.27;;;4.70;99.90;;;;;;4408383;28;659770;-76
2024/02/20 04:36:24;;;;;;;38.93;19.80;;;4.70;99.90;;;;;;4435262;28;659911;-77
2024/02/20 04:39:11;;;;;;;38.53;21.13;;;4.70;99.90;;;;;;4391380;28;660017;-77
2024/02/20 04:42:00;;;;;;;35.90;19.63;;;4.70;99.90;;;;;;4389539;28;659434;-76
2024/02/20 04:44:48;;;;;;;34.83;17.37;;;4.70;99.90;;;;;;4393388;28;659815;-75
2024/02/20 04:47:35;;;;;;;39.83;22.00;;;4.80;99.90;;;;;;4420282;28;660915;-76
2024/02/20 04:50:23;;;;;;;39.80;20.05;;;4.70;99.90;;;;;;4413894;28;659637;-74
2024/02/20 04:53:10;;;;;;;35.80;19.67;;;4.70;99.90;;;;;;4427862;28;660948;-76
2024/02/20 04:55:57;;;;;;;37.67;19.37;;;4.70;99.90;;;;;;4426283;28;659904;-75
2024/02/20 04:58:46;;;;;;;41.17;20.20;;;4.70;99.90;;;;;;4412460;28;660414;-78
2024/02/20 05:01:33;;;;;;;38.77;20.40;;;4.70;99.90;;;;;;4390065;28;660407;-76
2024/02/20 05:04:20;;;;;;;37.83;20.03;;;4.80;99.90;;;;;;4435713;28;660620;-76
2024/02/20 05:07:08;;;;;;;39.93;20.27;;;4.80;99.90;;;;;;4419135;28;659551;-75
2024/02/20 05:09:55;;;;;;;34.40;19.73;;;4.80;99.90;;;;;;4441664;28;660157;-76
2024/02/20 05:12:44;;;;;;;33.93;17.80;;;4.80;99.90;;;;;;4417469;28;659759;-74
2024/02/20 05:15:32;;;;;;;28.33;12.90;;;4.80;99.90;;;;;;4437340;28;659867;-76
2024/02/20 05:18:19;;;;;;;33.15;17.85;;;4.80;99.90;;;;;;4413560;28;661065;-76
2024/02/20 05:21:07;;;;;;;37.63;20.03;;;4.80;99.90;;;;;;4425923;28;658929;-77
2024/02/20 05:23:54;;;;;;;36.60;20.43;;;4.80;99.90;;;;;;4392304;28;661272;-75
2024/02/20 05:26:42;;;;;;;39.73;21.57;;;4.80;99.90;;;;;;4431846;28;660025;-78
2024/02/20 05:29:30;;;;;;;39.57;20.83;;;4.80;99.90;;;;;;4413799;28;659695;-77
2024/02/20 05:32:19;;;;;;;36.30;18.83;;;4.80;99.90;;;;;;4432565;28;659841;-77
2024/02/20 05:35:08;;;;;;;29.00;14.03;;;4.90;99.90;;;;;;4404138;28;659983;-78
2024/02/20 05:37:55;;;;;;;39.03;21.13;;;4.90;99.90;;;;;;4409747;28;660331;-77
2024/02/20 05:40:42;;;;;;;34.60;19.73;;;4.80;99.90;;;;;;4419265;28;660269;-75
2024/02/20 05:43:30;;;;;;;35.93;19.03;;;4.80;99.90;;;;;;4433430;28;659825;-77
2024/02/20 05:46:17;;;;;;;35.40;19.63;;;4.80;99.90;;;;;;4426079;28;659798;-75
2024/02/20 05:49:06;;;;;;;36.47;19.57;;;4.90;99.90;;;;;;4434489;28;660268;-77
2024/02/20 05:51:53;;;;;;;37.17;19.60;;;4.80;99.90;;;;;;4416049;28;659502;-78
2024/02/20 05:54:41;;;;;;;34.83;20.80;;;4.90;99.90;;;;;;4439137;28;659940;-77
2024/02/20 05:57:28;;;;;;;34.47;19.87;;;4.80;99.90;;;;;;4413173;28;660145;-77
2024/02/20 06:00:16;;;;;;;36.20;20.90;;;4.90;99.90;;;;;;4426920;28;660791;-77
2024/02/20 06:03:03;;;;;;;38.27;21.07;;;4.90;99.90;;;;;;4397092;28;659880;-77
2024/02/20 06:05:52;;;;;;;39.27;21.47;;;4.90;99.90;;;;;;4432550;28;660894;-77
2024/02/20 06:08:41;;;;;;;37.47;18.77;;;4.90;99.90;;;;;;4403617;28;660801;-77
2024/02/20 06:11:28;;;;;;;32.50;18.87;;;4.90;99.90;;;;;;4407929;28;660084;-77
2024/02/20 06:14:16;;;;;;;33.63;18.83;;;4.90;99.90;;;;;;4432548;28;660983;-77
2024/02/20 06:17:03;;;;;;;32.47;16.87;;;4.90;99.90;;;;;;4408626;28;659617;-76
2024/02/20 06:19:50;;;;;;;37.10;19.37;;;4.90;99.90;;;;;;4428114;28;660070;-78
2024/02/20 06:22:39;;;;;;;34.67;18.67;;;4.90;99.90;;;;;;4414015;28;659570;-76
2024/02/20 06:25:27;;;;;;;24.30;12.37;;;4.90;99.90;;;;;;4438151;28;659307;-76
2024/02/20 06:28:16;;;;;;;34.20;18.73;;;4.90;99.90;;;;;;4407050;28;660297;-78
2024/02/20 06:31:05;;;;;;;34.17;18.67;;;4.90;89.00;;;;;;4392372;28;659721;-78
2024/02/20 06:33:53;;;;;;;30.47;18.77;;;5.00;46.70;;;;;;4396355;28;659821;-76
2024/02/20 06:36:40;;;;;;;31.67;17.97;;;5.00;33.60;;;;;;4430895;28;660797;-78
2024/02/20 06:39:29;;;;;;;34.40;18.63;;;5.00;1.20;;;;;;4424212;28;659804;-74
2024/02/20 06:42:17;;;;;;;31.93;17.10;;;5.00;6.30;;;;;;4437674;28;658177;-78
2024/02/20 06:45:05;;;;;;;32.77;17.90;;;5.10;1.00;;;;;;4409566;28;659941;-77
2024/02/20 06:47:53;;;;;;;33.03;17.50;;;5.10;1.00;;;;;;4407853;28;658973;-77
2024/02/20 06:50:40;;;;;;;34.13;18.63;;;5.20;1.00;;;;;;4431353;28;659520;-78
2024/02/20 06:53:27;;;;;;;34.23;19.07;;;5.20;1.00;;;;;;4421366;28;658809;-76
2024/02/20 06:56:16;;;;;;;33.30;19.90;;;5.20;1.00;;;;;;4433468;28;659064;-78
2024/02/20 06:59:03;;;;;;;31.63;19.00;;;5.20;1.00;;;;;;4401023;28;658840;-79
2024/02/20 07:01:51;;;;;;;33.37;18.13;;;5.30;1.00;;;;;;4429243;28;659327;-77
2024/02/20 07:04:40;;;;;;;28.50;13.87;;;5.30;1.00;;;;;;4401012;28;659015;-77
2024/02/20 07:07:28;;;;;;;16.57;10.23;;;5.30;1.00;;;;;;4415367;28;659516;-77
2024/02/20 07:10:15;;;;;;;31.67;17.47;;;5.30;1.00;;;;;;4421056;28;659456;-77
2024/02/20 07:13:04;;;;;;;30.17;16.20;;;5.30;1.00;;;;;;4410788;28;658795;-76
2024/02/20 07:15:51;;;;;;;28.93;17.10;;;5.30;1.00;;;;;;4436933;28;659332;-77
2024/02/20 07:18:38;;;;;;;28.63;17.42;;;5.30;1.00;;;;;;4405701;28;658766;-77
2024/02/20 07:21:26;;;;;;;32.70;17.27;;;5.40;1.00;;;;;;4430908;28;659477;-78
2024/02/20 07:24:13;;;;;;;28.37;16.33;;;5.40;1.00;;;;;;4398312;28;658926;-77
2024/02/20 07:27:00;;;;;;;27.43;15.57;;;5.30;1.00;;;;;;4434496;28;658697;-76
2024/02/20 07:29:49;;;;;;;26.87;15.27;;;5.30;1.00;;;;;;4416598;28;659085;-76
2024/02/20 07:32:37;;;;;;;28.00;15.73;;;5.30;1.00;;;;;;4431799;28;658962;-77
2024/02/20 07:35:24;;;;;;;25.80;14.17;;;5.30;1.00;;;;;;4389434;28;659069;-77
2024/02/20 07:38:11;;;;;;;7.90;4.33;;;5.40;1.00;;;;;;4433644;28;658826;-75
2024/02/20 07:41:02;;;;;;;19.73;10.20;;;5.30;1.00;;;;;;4413658;28;657114;-77
2024/02/20 07:43:50;;;;;;;20.83;11.50;;;5.40;1.00;;;;;;4403286;28;658938;-77
2024/02/20 07:46:39;;;;;;;27.03;16.97;;;5.40;1.00;;;;;;4430494;28;658506;-75
2024/02/20 07:49:26;;;;;;;24.93;16.33;;;5.40;1.00;;;;;;4433111;28;658485;-76
2024/02/20 07:52:14;;;;;;;25.57;15.60;;;5.30;1.00;;;;;;4411181;28;659246;-77
2024/02/20 07:55:01;;;;;;;23.87;14.20;;;5.30;1.00;;;;;;4429703;28;658750;-77
2024/02/20 07:57:48;;;;;;;23.23;13.73;;;5.30;1.00;;;;;;4413622;28;658673;-76
2024/02/20 08:00:36;;;;;;;24.20;12.83;;;5.30;1.00;;;;;;4431050;28;658578;-76
2024/02/20 08:03:25;;;;;;;31.03;16.87;;;5.40;1.00;;;;;;4408324;28;658519;-77
2024/02/20 08:06:13;;;;;;;20.27;5.33;;;5.30;1.00;;;;;;4429166;28;659027;-76
2024/02/20 08:09:00;;;;;;;30.43;16.97;;;5.40;1.00;;;;;;4434041;28;657759;-77
2024/02/20 08:11:49;;;;;;;32.07;17.57;;;5.40;1.00;;;;;;4423072;28;658823;-75
2024/02/20 08:14:36;;;;;;;31.47;20.07;;;5.50;1.00;;;;;;4430140;28;658897;-77
2024/02/20 08:17:24;;;;;;;35.53;17.43;;;5.50;1.00;;;;;;4410753;28;658593;-77
2024/02/20 08:20:13;;;;;;;27.67;16.33;;;5.40;1.00;;;;;;4427125;28;658578;-77
2024/02/20 08:23:00;;;;;;;29.98;16.67;;;5.50;1.00;;;;;;4403114;28;659306;-76
2024/02/20 08:25:47;;;;;;;18.53;9.40;;;5.50;1.00;;;;;;4408559;28;659418;-75
2024/02/20 08:28:35;;;;;;;25.03;13.27;;;5.60;1.00;;;;;;4429073;28;657984;-76
2024/02/20 08:31:22;;;;;;;29.67;16.67;;;5.60;1.00;;;;;;4427043;28;658870;-77
2024/02/20 08:34:09;;;;;;;23.87;15.10;;;5.60;1.00;;;;;;4412384;28;659256;-77
2024/02/20 08:36:58;;;;;;;29.07;16.83;;;5.60;1.00;;;;;;4434197;28;659058;-77
2024/02/20 08:39:45;;;;;;;28.07;16.70;;;5.60;1.00;;;;;;4406352;28;659492;-77
2024/02/20 08:42:32;;;;;;;27.33;14.73;;;5.70;1.00;;;;;;4410989;28;658892;-75
2024/02/20 08:45:20;;;;;;;28.93;15.97;;;5.70;1.00;;;;;;4432175;28;658990;-77
2024/02/20 08:48:08;;;;;;;23.97;13.13;;;5.80;1.00;;;;;;4429815;28;659633;-75
2024/02/20 08:50:55;;;;;;;25.53;12.97;;;5.90;1.00;;;;;;4434461;28;658758;-76
2024/02/20 08:53:45;;;;;;;25.30;13.40;;;5.90;1.00;;;;;;4398449;28;659032;-75
2024/02/20 08:56:32;;;;;;;14.20;7.63;;;5.80;1.00;;;;;;4415157;28;658534;-75
2024/02/20 08:59:20;;;;;;;23.57;13.33;;;5.80;1.00;;;;;;4437809;28;657438;-76
2024/02/20 09:02:07;;;;;;;18.30;10.83;;;5.80;1.00;;;;;;4428359;28;659262;-75
2024/02/20 09:04:55;;;;;;;19.27;11.63;;;5.80;1.00;;;;;;4429966;28;659223;-76
2024/02/20 09:07:43;;;;;;;30.43;14.73;;;5.80;1.00;;;;;;4423128;28;658582;-74
2024/02/20 09:10:31;;;;;;;18.20;9.40;;;5.80;1.00;;;;;;4417093;28;659987;-77
2024/02/20 09:13:18;;;;;;;18.98;9.88;;;5.90;1.00;;;;;;4414332;28;658126;-75
2024/02/20 09:16:06;;;;;;;29.47;17.07;;;5.70;1.00;;;;;;4436534;28;658253;-77
2024/02/20 09:18:53;;;;;;;12.77;7.23;;;5.80;1.00;;;;;;4415232;28;658818;-75
2024/02/20 09:21:40;;;;;;;25.27;12.73;;;5.80;1.00;;;;;;4429827;28;658241;-76
2024/02/20 09:24:27;;;;;;;15.80;8.47;;;5.80;1.00;;;;;;4407348;28;658910;-75
2024/02/20 09:27:16;;;;;;;20.63;10.33;;;5.80;1.00;;;;;;4425085;28;658803;-76
2024/02/20 09:30:05;;;;;;;37.37;20.30;;;5.70;19.30;;;;;;4418274;28;659251;-75
2024/02/20 09:32:52;;;;;;;33.17;17.50;;;5.70;99.90;;;;;;4414890;28;660012;-74
2024/02/20 09:35:40;;;;;;;23.07;12.73;;;5.70;99.90;;;;;;4439266;28;660218;-76
2024/02/20 09:38:27;;;;;;;23.40;12.43;;;5.70;99.90;;;;;;4427033;28;659939;-74
2024/02/20 09:41:18;;;;;;;26.43;12.80;;;5.70;99.90;;;;;;4434035;28;659558;-75
2024/02/20 09:44:08;;;;;;;36.67;20.13;;;5.70;99.90;;;;;;4409941;28;660729;-75
2024/02/20 09:46:55;;;;;;;45.50;21.77;;;5.70;99.90;;;;;;4398628;28;660826;-76
2024/02/20 09:49:43;;;;;;;36.97;20.57;;;5.70;99.90;;;;;;4412727;28;660258;-75
2024/02/20 09:52:30;;;;;;;32.77;16.57;;;5.70;99.90;;;;;;4429774;28;660703;-76
2024/02/20 09:55:18;;;;;;;20.43;9.23;;;5.70;53.00;;;;;;4412279;28;660102;-75
2024/02/20 09:58:06;;;;;;;33.88;16.83;;;5.80;54.50;;;;;;4438437;28;660245;-76
2024/02/20 10:00:55;;;;;;;20.20;8.67;;;5.70;29.20;;;;;;4411556;28;660028;-76
2024/02/20 10:03:43;;;;;;;35.07;17.53;;;5.80;31.60;;;;;;4412751;28;658350;-76
2024/02/20 10:06:30;;;;;;;28.80;14.67;;;5.80;50.10;;;;;;4434913;28;659949;-77
2024/02/20 10:09:17;;;;;;;34.33;18.27;;;5.90;66.10;;;;;;4418663;28;660196;-75
2024/02/20 10:12:05;;;;;;;31.50;17.63;;;5.90;85.40;;;;;;4436029;28;659564;-77
2024/02/20 10:14:52;;;;;;;28.07;16.10;;;6.00;90.00;;;;;;4403028;28;659812;-75
2024/02/20 10:17:42;;;;;;;35.40;18.47;;;5.90;1.00;;;;;;4431930;28;660520;-77
2024/02/20 10:20:30;;;;;;;30.83;17.37;;;5.80;1.00;;;;;;4409124;28;658807;-76
2024/02/20 10:23:17;;;;;;;28.50;15.17;;;5.90;1.00;;;;;;4432044;28;658603;-75
2024/02/20 10:26:05;;;;;;;20.17;6.03;;;6.00;1.00;;;;;;4436303;28;658911;-75
2024/02/20 10:28:52;;;;;;;32.47;18.03;;;6.00;1.00;;;;;;4423794;28;657685;-75
2024/02/20 10:31:40;;;;;;;39.93;18.57;;;6.00;1.00;;;;;;4431786;28;658762;-76
2024/02/20 10:34:29;;;;;;;32.90;16.97;;;6.00;1.00;;;;;;4427173;28;659068;-74
2024/02/20 10:37:17;;;;;;;40.97;17.53;;;5.90;23.40;;;;;;4437047;28;658432;-77
2024/02/20 10:40:09;;;;;;;25.47;14.00;;;5.90;99.90;;;;;;4410908;28;660651;-77
2024/02/20 10:42:56;;;;;;;35.03;19.40;;;5.90;99.90;;;;;;4406539;28;659377;-76
2024/02/20 10:45:45;;;;;;;17.27;8.00;;;5.90;99.90;;;;;;4400490;28;659587;-75
2024/02/20 10:48:32;;;;;;;34.07;17.57;;;6.00;99.90;;;;;;4436423;28;658336;-76
2024/02/20 10:51:20;;;;;;;21.73;8.30;;;6.00;99.90;;;;;;4409925;28;660229;-74
2024/02/20 10:54:08;;;;;;;43.43;17.70;;;6.00;99.90;;;;;;4412733;28;660961;-74
2024/02/20 10:56:56;;;;;;;34.93;18.37;;;6.00;99.90;;;;;;4437543;27;660850;-75
2024/02/20 10:59:43;;;;;;;32.13;17.00;;;6.10;99.90;;;;;;4411759;28;659750;-75
2024/02/20 11:02:32;;;;;;;39.90;19.50;;;6.10;99.90;;;;;;4431449;28;659351;-75
2024/02/20 11:05:19;;;;;;;34.93;18.53;;;6.10;99.90;;;;;;4411960;28;661463;-74
2024/02/20 11:08:09;;;;;;;30.10;14.77;;;6.10;99.90;;;;;;4428896;28;660062;-76
2024/02/20 11:10:56;;;;;;;35.00;15.97;;;6.20;99.90;;;;;;4408820;28;660064;-76
2024/02/20 11:13:44;;;;;;;24.43;12.77;;;6.10;96.70;;;;;;4397625;28;659451;-75
2024/02/20 11:16:35;;;;;;;40.10;19.13;;;6.20;92.30;;;;;;4424516;28;660263;-76
2024/02/20 11:19:26;;;;;;;38.53;18.50;;;6.20;71.20;;;;;;4413017;28;660760;-76
2024/02/20 11:22:13;;;;;;;39.60;19.53;;;6.40;99.90;;;;;;4412613;28;659700;-75
2024/02/20 11:25:07;;;;;;;43.93;22.07;;;6.40;63.80;;;;;;4433448;28;659482;-75
2024/02/20 11:27:54;;;;;;;37.90;20.73;;;6.30;1.00;;;;;;4407199;28;659830;-76
2024/02/20 11:30:42;;;;;;;40.07;18.43;;;6.50;1.00;;;;;;4413929;28;658146;-75
2024/02/20 11:33:30;;;;;;;26.73;10.13;;;6.50;1.00;;;;;;4416857;28;659488;-75
2024/02/20 11:36:17;;;;;;;40.80;20.20;;;6.50;1.00;;;;;;4409567;28;658994;-75
2024/02/20 11:39:06;;;;;;;27.47;12.97;;;6.60;1.00;;;;;;4431650;28;658645;-76
2024/02/20 11:41:58;;;;;;;36.07;19.33;;;6.60;1.00;;;;;;4417510;28;658872;-75
2024/02/20 11:44:46;;;;;;;39.50;20.95;;;6.70;1.00;;;;;;4407001;28;659039;-76
2024/02/20 11:47:33;;;;;;;36.97;19.00;;;6.80;1.00;;;;;;4409871;28;659386;-75
2024/02/20 11:50:22;;;;;;;22.40;11.87;;;6.80;1.00;;;;;;4436850;28;658035;-76
2024/02/20 11:53:11;;;;;;;8.97;3.93;;;6.80;1.00;;;;;;4436365;28;659365;-75
2024/02/20 11:55:59;;;;;;;35.38;17.48;;;6.90;99.90;;;;;;4415761;28;656469;-76
2024/02/20 11:58:48;;;;;;;34.23;18.00;;;6.80;99.90;;;;;;4427770;28;659388;-75
2024/02/20 12:01:35;;;;;;;34.97;17.60;;;6.90;99.90;;;;;;4402730;28;660131;-75
2024/02/20 12:04:27;;;;;;;36.57;16.87;;;6.90;99.90;;;;;;4415643;28;659461;-76
2024/02/20 12:07:14;;;;;;;29.60;16.13;;;6.80;99.90;;;;;;4413550;28;660949;-76
2024/02/20 12:10:02;;;;;;;19.53;9.03;;;6.90;99.90;;;;;;4427351;28;658953;-75
2024/02/20 12:12:49;;;;;;;29.90;14.30;;;6.90;27.20;;;;;;4411938;28;658799;-75
2024/02/20 12:15:39;;;;;;;32.63;17.03;;;7.00;99.90;;;;;;4422646;28;659709;-75
2024/02/20 12:18:26;;;;;;;31.67;17.00;;;7.00;53.30;;;;;;4407289;28;659889;-76
2024/02/20 12:21:14;;;;;;;11.80;5.10;;;6.90;99.90;;;;;;4407315;28;659594;-75
2024/02/20 12:24:07;;;;;;;33.57;16.13;;;6.90;1.00;;;;;;4430860;28;658883;-75
2024/02/20 12:26:54;;;;;;;30.83;15.70;;;6.90;99.90;;;;;;4401881;28;659563;-75
2024/02/20 12:29:41;;;;;;;29.90;14.23;;;6.90;99.90;;;;;;4434157;28;659220;-76
2024/02/20 12:32:30;;;;;;;31.87;15.80;;;6.90;92.70;;;;;;4411664;28;659948;-76
2024/02/20 12:35:17;;;;;;;31.77;15.97;;;6.80;99.90;;;;;;4433314;28;659536;-75
2024/02/20 12:38:05;;;;;;;30.77;16.27;;;6.90;40.60;;;;;;4425438;28;660326;-74
2024/02/20 12:40:52;;;;;;;32.10;16.87;;;6.90;74.60;;;;;;4414686;28;659987;-75
2024/02/20 12:43:40;;;;;;;29.77;16.27;;;6.90;99.70;;;;;;4436740;28;660188;-74
2024/02/20 12:46:27;;;;;;;33.23;17.10;;;6.80;99.90;;;;;;4423812;28;659830;-75
2024/02/20 12:49:15;;;;;;;29.30;14.80;;;6.90;99.90;;;;;;4409068;28;660555;-76
2024/02/20 12:52:03;;;;;;;33.03;16.60;;;7.00;99.90;;;;;;4407842;28;660328;-75
2024/02/20 12:54:50;;;;;;;33.87;18.43;;;7.10;99.90;;;;;;4436271;28;661459;-75
2024/02/20 12:57:37;;;;;;;31.83;17.37;;;7.10;10.90;;;;;;4421416;28;659922;-76
2024/02/20 13:00:25;;;;;;;32.13;17.63;;;7.10;1.00;;;;;;4423289;28;660181;-76
2024/02/20 13:03:12;;;;;;;30.10;17.27;;;7.20;1.00;;;;;;4429252;28;658564;-75
2024/02/20 13:06:02;;;;;;;34.30;17.30;;;7.30;1.70;;;;;;4435006;28;658622;-76
2024/02/20 13:08:49;;;;;;;29.23;16.03;;;7.50;1.00;;;;;;4413927;28;659483;-76
2024/02/20 13:11:36;;;;;;;26.03;14.00;;;7.50;99.90;;;;;;4432686;28;658702;-75
2024/02/20 13:14:24;;;;;;;30.30;16.57;;;7.70;99.90;;;;;;4402027;28;659866;-75
2024/02/20 13:17:11;;;;;;;31.90;15.70;;;7.60;99.90;;;;;;4428849;28;659853;-76
2024/02/20 13:19:58;;;;;;;20.60;11.13;;;7.80;99.90;;;;;;4408174;28;660637;-75
2024/02/20 13:22:47;;;;;;;28.73;16.17;;;7.70;1.00;;;;;;4441729;28;660028;-75
2024/02/20 13:25:34;;;;;;;26.37;14.77;;;7.70;92.10;;;;;;4409958;28;658800;-74
2024/02/20 13:28:23;;;;;;;25.33;14.77;;;7.80;99.90;;;;;;4437611;28;659957;-75
2024/02/20 13:31:11;;;;;;;25.13;13.17;;;7.60;1.00;;;;;;4416668;28;660369;-75
2024/02/20 13:33:58;;;;;;;26.83;15.07;;;7.70;99.90;;;;;;4409764;28;658708;-75
2024/02/20 13:36:46;;;;;;;23.83;12.67;;;7.60;99.90;;;;;;4411363;28;660800;-76
2024/02/20 13:39:34;;;;;;;25.40;14.03;;;7.70;99.90;;;;;;4400136;28;660208;-76
2024/02/20 13:42:21;;;;;;;24.33;12.97;;;7.60;99.90;;;;;;4431323;28;659894;-76
2024/02/20 13:45:09;;;;;;;23.00;13.17;;;7.40;99.90;;;;;;4393287;28;659821;-75
2024/02/20 13:47:57;;;;;;;13.40;6.93;;;7.30;99.90;;;;;;4420408;28;659798;-75
2024/02/20 13:50:44;;;;;;;6.67;3.67;;;6.90;99.90;;;;;;4417924;28;659033;-72
2024/02/20 13:53:31;;;;;;;4.17;2.17;;;6.10;1.00;;;;;;4435184;28;658204;-74
2024/02/20 13:56:20;;;;;;;6.07;3.53;;;5.90;99.90;;;;;;4411171;28;656674;-73
2024/02/20 13:59:08;;;;;;;4.07;1.50;;;6.00;99.90;;;;;;4422668;28;658021;-73
2024/02/20 14:01:55;;;;;;;6.20;3.47;;;6.00;1.00;;;;;;4445121;28;658813;-74
2024/02/20 14:04:42;;;;;;;6.33;3.53;;;5.80;1.00;;;;;;4429463;28;657505;-74
2024/02/20 14:07:30;;;;;;;8.73;3.30;;;5.80;1.00;;;;;;4439155;28;657562;-74
2024/02/20 14:10:18;;;;;;;5.77;3.70;;;5.90;1.00;;;;;;4437802;28;656894;-74
2024/02/20 14:13:08;;;;;;;7.57;3.90;;;5.90;1.00;;;;;;4435719;28;657417;-74
2024/02/20 14:15:56;;;;;;;6.77;4.13;;;5.90;1.00;;;;;;4409170;28;657638;-74
2024/02/20 14:18:43;;;;;;;13.20;4.50;;;5.90;1.00;;;;;;4419240;28;656765;-74